Terminal Aerodrome Forecast
Issued by NWS Portland, ME

Home | Current Version | Previous Version | Text Only | Print | Product List | Glossary On
Versions: 1 2 3 4 5 6 7 8 9 10 11 12 13 14 15 16 17 18
396
FTUS41 KGYX 252320
TAFCON
TAF
KCON 252320Z 2600/2624 09007KT 3SM -RA OVC004
     FM260500 00000KT 1 1/2SM BR OVC003
     FM260900 00000KT 3/4SM -DZ BR OVC003
     FM261200 00000KT 5SM BR OVC003
     FM261500 26012G20KT P6SM OVC025=

USA.gov is the U.S. government's official web portal to all federal, state and local government web resources and services.